North Myrtle Beach, SC

2:09 PM EDT on September 03, 2015 (GMT -0400)
Grand Strand | | Change Station
CLOSE
Current Station
Airport
Location: North Myrtle Beach,
Elevation: 33 ft
Nearby Weather Stations

Elev 33 ft 33.81 °N, 78.72 °W | Updated 16 minutes ago

Partly Cloudy
Partly Cloudy
85 °F
Feels Like 94 °F
N
12
Wind Variable Wind from SSW

Today
High -- | Low -- °F
--% Chance of Precip.
Yesterday
High -- | Low -- °F
Precip. -- in
6:49 AM 7:38 PM
Waning Gibbous, 68% visible
Pressure 29.93 in
Visibility 10.0 miles
Clouds Clear
Heat Index 94 °F
Dew Point 76 °F
Humidity 74%
Rainfall 0.00 in
Snow Depth Not available.
UV 11 out of 12
Pollen 8.20 out of 12
Air Quality Not available.
Flu Activity Not available.
METAR KCRE 031753Z 20010KT 10SM CLR 29/24 A2992 RMK AO1 SLP134 T02940244 10306 20250 58010
Pressure 29.93 in
Visibility 10.0 miles
Clouds Clear
Heat Index 94 °F
Dew Point 76 °F
Humidity 74%
Rainfall 0.00 in
Snow Depth Not available.
UV 11 out of 12
Pollen 8.20 out of 12
Air Quality Not available.
Flu Activity Not available.
METAR KCRE 031753Z 20010KT 10SM CLR 29/24 A2992 RMK AO1 SLP134 T02940244 10306 20250 58010

10-Day Weather Forecast

×

Almanac

Astronomy

Sep. 03, 2015 Rise Set
Actual Time
Civil Twilight
Nautical Twilight
Astronomical Twilight
Moon
Length of Visible Light
Length of Day
Tomorrow will be .
, % of the Moon is Illuminated

Today's Extremes

State Highs State Lows

Community

WunderPhotos

Upload Photos

1,851,995 photos uploaded!

WunderBlogs® & News

Nearby

Air Quality

  Air Quality AQ Index Pollutant
Not available.

Snow Depth

Station Depth Elevation

Earthquake Activity

City Distance Mag. Time & Date
Minimum magnitude displayed is 2.5.

Coastal Water Temperatures

Place Temperature

Stations

Nearby Weather Stations

Station Location Temp. Windchill Dew Point Humidity Wind Precip. Elev Updated Type